sensor_id;sensor_type;location;lat;lon;timestamp;P1;durP1;ratioP1;P2;durP2;ratioP2
36133;SDS011;40492;43.524;-1.510;2022-10-16T00:02:02;78.60;;;19.30;;
36133;SDS011;40492;43.524;-1.510;2022-10-16T00:04:27;78.07;;;18.48;;
36133;SDS011;40492;43.524;-1.510;2022-10-16T00:06:54;66.07;;;18.63;;
36133;SDS011;40492;43.524;-1.510;2022-10-16T00:09:22;67.20;;;18.83;;
36133;SDS011;40492;43.524;-1.510;2022-10-16T00:11:48;73.03;;;17.15;;
36133;SDS011;40492;43.524;-1.510;2022-10-16T00:14:14;71.15;;;18.10;;
36133;SDS011;40492;43.524;-1.510;2022-10-16T00:16:40;67.57;;;17.88;;
36133;SDS011;40492;43.524;-1.510;2022-10-16T00:19:07;70.28;;;16.83;;
36133;SDS011;40492;43.524;-1.510;2022-10-16T00:21:33;63.65;;;16.67;;
36133;SDS011;40492;43.524;-1.510;2022-10-16T00:24:00;75.75;;;19.52;;
36133;SDS011;40492;43.524;-1.510;2022-10-16T00:26:29;75.35;;;16.77;;
36133;SDS011;40492;43.524;-1.510;2022-10-16T00:28:56;68.82;;;16.58;;
36133;SDS011;40492;43.524;-1.510;2022-10-16T00:31:22;59.70;;;17.63;;
36133;SDS011;40492;43.524;-1.510;2022-10-16T00:33:49;53.28;;;14.73;;
36133;SDS011;40492;43.524;-1.510;2022-10-16T00:36:16;53.58;;;14.90;;
36133;SDS011;40492;43.524;-1.510;2022-10-16T00:38:46;60.30;;;15.32;;
36133;SDS011;40492;43.524;-1.510;2022-10-16T00:41:15;49.22;;;14.75;;
36133;SDS011;40492;43.524;-1.510;2022-10-16T00:43:46;52.80;;;14.30;;
36133;SDS011;40492;43.524;-1.510;2022-10-16T00:46:26;47.60;;;14.32;;
36133;SDS011;40492;43.524;-1.510;2022-10-16T00:49:35;41.85;;;13.73;;
36133;SDS011;40492;43.524;-1.510;2022-10-16T00:51:47;43.10;;;13.25;;
36133;SDS011;40492;43.524;-1.510;2022-10-16T00:54:28;43.22;;;12.25;;
36133;SDS011;40492;43.524;-1.510;2022-10-16T00:56:56;29.52;;;11.55;;
36133;SDS011;40492;43.524;-1.510;2022-10-16T00:59:27;36.45;;;10.85;;
36133;SDS011;40492;43.524;-1.510;2022-10-16T01:01:55;42.30;;;11.98;;
36133;SDS011;40492;43.524;-1.510;2022-10-16T01:04:29;43.88;;;11.40;;
36133;SDS011;40492;43.524;-1.510;2022-10-16T01:07:27;41.00;;;11.10;;
36133;SDS011;40492;43.524;-1.510;2022-10-16T01:12:52;38.58;;;11.45;;
36133;SDS011;40492;43.524;-1.510;2022-10-16T01:15:36;43.45;;;11.70;;
36133;SDS011;40492;43.524;-1.510;2022-10-16T01:18:33;46.35;;;13.10;;
36133;SDS011;40492;43.524;-1.510;2022-10-16T01:29:17;38.20;;;10.55;;
36133;SDS011;40492;43.524;-1.510;2022-10-16T01:31:53;44.30;;;11.73;;
36133;SDS011;40492;43.524;-1.510;2022-10-16T01:34:35;44.10;;;10.93;;
36133;SDS011;40492;43.524;-1.510;2022-10-16T01:37:12;36.78;;;11.57;;
36133;SDS011;40492;43.524;-1.510;2022-10-16T01:39:47;35.22;;;11.25;;
36133;SDS011;40492;43.524;-1.510;2022-10-16T01:42:20;37.47;;;11.48;;
36133;SDS011;40492;43.524;-1.510;2022-10-16T01:44:49;44.25;;;11.82;;
36133;SDS011;40492;43.524;-1.510;2022-10-16T01:47:17;30.42;;;9.48;;
36133;SDS011;40492;43.524;-1.510;2022-10-16T01:49:47;34.55;;;10.60;;
36133;SDS011;40492;43.524;-1.510;2022-10-16T01:52:17;32.75;;;9.88;;
36133;SDS011;40492;43.524;-1.510;2022-10-16T01:54:50;34.17;;;9.73;;
36133;SDS011;40492;43.524;-1.510;2022-10-16T01:57:23;27.63;;;8.73;;
36133;SDS011;40492;43.524;-1.510;2022-10-16T01:59:51;31.95;;;9.80;;
36133;SDS011;40492;43.524;-1.510;2022-10-16T02:02:21;28.40;;;9.60;;
36133;SDS011;40492;43.524;-1.510;2022-10-16T02:04:53;36.05;;;9.27;;
36133;SDS011;40492;43.524;-1.510;2022-10-16T02:07:24;26.80;;;9.60;;
36133;SDS011;40492;43.524;-1.510;2022-10-16T02:09:50;38.92;;;10.02;;
36133;SDS011;40492;43.524;-1.510;2022-10-16T02:12:21;23.80;;;8.60;;
36133;SDS011;40492;43.524;-1.510;2022-10-16T02:14:52;23.58;;;9.00;;
36133;SDS011;40492;43.524;-1.510;2022-10-16T02:17:30;21.85;;;9.18;;
36133;SDS011;40492;43.524;-1.510;2022-10-16T02:19:57;23.30;;;8.35;;
36133;SDS011;40492;43.524;-1.510;2022-10-16T02:25:11;27.60;;;8.85;;
36133;SDS011;40492;43.524;-1.510;2022-10-16T02:30:49;24.35;;;8.35;;
36133;SDS011;40492;43.524;-1.510;2022-10-16T02:33:20;21.43;;;8.47;;
36133;SDS011;40492;43.524;-1.510;2022-10-16T02:35:48;25.65;;;8.70;;
36133;SDS011;40492;43.524;-1.510;2022-10-16T02:38:16;31.00;;;9.65;;
36133;SDS011;40492;43.524;-1.510;2022-10-16T02:40:50;23.30;;;8.80;;
36133;SDS011;40492;43.524;-1.510;2022-10-16T02:43:16;27.20;;;9.23;;
36133;SDS011;40492;43.524;-1.510;2022-10-16T02:45:42;25.40;;;8.18;;
36133;SDS011;40492;43.524;-1.510;2022-10-16T02:48:16;20.77;;;8.45;;
36133;SDS011;40492;43.524;-1.510;2022-10-16T02:50:42;20.85;;;9.45;;
36133;SDS011;40492;43.524;-1.510;2022-10-16T02:53:08;23.13;;;8.20;;
36133;SDS011;40492;43.524;-1.510;2022-10-16T02:55:37;25.67;;;8.90;;
36133;SDS011;40492;43.524;-1.510;2022-10-16T02:58:03;20.50;;;7.97;;
36133;SDS011;40492;43.524;-1.510;2022-10-16T03:00:29;23.95;;;9.10;;
36133;SDS011;40492;43.524;-1.510;2022-10-16T03:02:54;20.10;;;7.55;;
36133;SDS011;40492;43.524;-1.510;2022-10-16T03:05:20;22.30;;;9.23;;
36133;SDS011;40492;43.524;-1.510;2022-10-16T03:07:46;29.17;;;9.13;;
36133;SDS011;40492;43.524;-1.510;2022-10-16T03:10:12;16.75;;;8.20;;
36133;SDS011;40492;43.524;-1.510;2022-10-16T03:12:38;21.90;;;7.97;;
36133;SDS011;40492;43.524;-1.510;2022-10-16T03:15:04;15.35;;;7.93;;
36133;SDS011;40492;43.524;-1.510;2022-10-16T03:17:31;17.30;;;7.35;;
36133;SDS011;40492;43.524;-1.510;2022-10-16T03:19:58;14.68;;;7.20;;
36133;SDS011;40492;43.524;-1.510;2022-10-16T03:22:24;29.27;;;8.50;;
36133;SDS011;40492;43.524;-1.510;2022-10-16T03:24:50;24.77;;;8.20;;
36133;SDS011;40492;43.524;-1.510;2022-10-16T03:27:16;16.15;;;7.80;;
36133;SDS011;40492;43.524;-1.510;2022-10-16T03:29:42;15.30;;;7.57;;
36133;SDS011;40492;43.524;-1.510;2022-10-16T03:32:08;23.38;;;7.15;;
36133;SDS011;40492;43.524;-1.510;2022-10-16T03:34:34;20.40;;;7.80;;
36133;SDS011;40492;43.524;-1.510;2022-10-16T03:37:00;23.25;;;8.70;;
36133;SDS011;40492;43.524;-1.510;2022-10-16T03:39:25;20.88;;;8.27;;
36133;SDS011;40492;43.524;-1.510;2022-10-16T03:41:52;19.08;;;7.65;;
36133;SDS011;40492;43.524;-1.510;2022-10-16T03:44:18;20.70;;;7.88;;
36133;SDS011;40492;43.524;-1.510;2022-10-16T03:46:44;15.48;;;7.45;;
36133;SDS011;40492;43.524;-1.510;2022-10-16T03:49:10;19.38;;;8.18;;
36133;SDS011;40492;43.524;-1.510;2022-10-16T03:51:38;15.50;;;6.97;;
36133;SDS011;40492;43.524;-1.510;2022-10-16T03:54:04;15.40;;;7.88;;
36133;SDS011;40492;43.524;-1.510;2022-10-16T03:56:30;25.88;;;8.50;;
36133;SDS011;40492;43.524;-1.510;2022-10-16T03:58:56;18.35;;;7.50;;
36133;SDS011;40492;43.524;-1.510;2022-10-16T04:01:22;18.08;;;8.48;;
36133;SDS011;40492;43.524;-1.510;2022-10-16T04:03:48;21.95;;;7.95;;
36133;SDS011;40492;43.524;-1.510;2022-10-16T04:06:14;17.90;;;8.23;;
36133;SDS011;40492;43.524;-1.510;2022-10-16T04:08:41;19.30;;;8.88;;
36133;SDS011;40492;43.524;-1.510;2022-10-16T04:11:08;22.80;;;9.20;;
36133;SDS011;40492;43.524;-1.510;2022-10-16T04:13:35;21.92;;;8.98;;
36133;SDS011;40492;43.524;-1.510;2022-10-16T04:16:00;14.43;;;8.32;;
36133;SDS011;40492;43.524;-1.510;2022-10-16T04:18:27;17.08;;;8.30;;
36133;SDS011;40492;43.524;-1.510;2022-10-16T04:20:54;21.95;;;9.27;;
36133;SDS011;40492;43.524;-1.510;2022-10-16T04:23:20;25.27;;;11.88;;
36133;SDS011;40492;43.524;-1.510;2022-10-16T04:25:47;30.25;;;15.38;;
36133;SDS011;40492;43.524;-1.510;2022-10-16T04:28:14;28.88;;;12.52;;
36133;SDS011;40492;43.524;-1.510;2022-10-16T04:30:40;23.27;;;11.60;;
36133;SDS011;40492;43.524;-1.510;2022-10-16T04:33:06;23.10;;;10.90;;
36133;SDS011;40492;43.524;-1.510;2022-10-16T04:35:34;25.08;;;12.23;;
36133;SDS011;40492;43.524;-1.510;2022-10-16T04:37:59;30.52;;;12.52;;
36133;SDS011;40492;43.524;-1.510;2022-10-16T04:40:25;34.83;;;12.23;;
36133;SDS011;40492;43.524;-1.510;2022-10-16T04:42:52;26.52;;;11.65;;
36133;SDS011;40492;43.524;-1.510;2022-10-16T04:45:18;25.95;;;11.95;;
36133;SDS011;40492;43.524;-1.510;2022-10-16T04:47:43;27.85;;;11.05;;
36133;SDS011;40492;43.524;-1.510;2022-10-16T04:50:09;26.02;;;11.85;;
36133;SDS011;40492;43.524;-1.510;2022-10-16T04:52:36;25.67;;;11.45;;
36133;SDS011;40492;43.524;-1.510;2022-10-16T04:55:02;25.88;;;10.93;;
36133;SDS011;40492;43.524;-1.510;2022-10-16T04:57:28;20.33;;;11.23;;
36133;SDS011;40492;43.524;-1.510;2022-10-16T04:59:55;26.55;;;12.00;;
36133;SDS011;40492;43.524;-1.510;2022-10-16T05:02:21;27.95;;;11.13;;
36133;SDS011;40492;43.524;-1.510;2022-10-16T05:04:47;27.48;;;11.73;;
36133;SDS011;40492;43.524;-1.510;2022-10-16T05:07:13;33.33;;;13.27;;
36133;SDS011;40492;43.524;-1.510;2022-10-16T05:09:39;24.85;;;11.40;;
36133;SDS011;40492;43.524;-1.510;2022-10-16T05:12:05;21.83;;;11.57;;
36133;SDS011;40492;43.524;-1.510;2022-10-16T05:14:30;23.20;;;11.63;;
36133;SDS011;40492;43.524;-1.510;2022-10-16T05:16:56;27.65;;;11.52;;
36133;SDS011;40492;43.524;-1.510;2022-10-16T05:19:22;23.63;;;11.98;;
36133;SDS011;40492;43.524;-1.510;2022-10-16T05:21:48;26.20;;;11.88;;
36133;SDS011;40492;43.524;-1.510;2022-10-16T05:24:14;31.05;;;13.15;;
36133;SDS011;40492;43.524;-1.510;2022-10-16T05:26:41;31.48;;;11.82;;
36133;SDS011;40492;43.524;-1.510;2022-10-16T05:29:07;29.17;;;10.73;;
36133;SDS011;40492;43.524;-1.510;2022-10-16T05:31:33;24.25;;;10.70;;
36133;SDS011;40492;43.524;-1.510;2022-10-16T05:33:59;23.67;;;10.77;;
36133;SDS011;40492;43.524;-1.510;2022-10-16T05:36:25;24.17;;;11.57;;
36133;SDS011;40492;43.524;-1.510;2022-10-16T05:38:51;22.58;;;10.73;;
36133;SDS011;40492;43.524;-1.510;2022-10-16T05:41:17;27.45;;;11.30;;
36133;SDS011;40492;43.524;-1.510;2022-10-16T05:43:46;31.10;;;11.05;;
36133;SDS011;40492;43.524;-1.510;2022-10-16T05:46:13;21.50;;;10.65;;
36133;SDS011;40492;43.524;-1.510;2022-10-16T05:48:39;23.13;;;10.20;;
36133;SDS011;40492;43.524;-1.510;2022-10-16T05:51:06;21.23;;;10.52;;
36133;SDS011;40492;43.524;-1.510;2022-10-16T05:53:35;22.88;;;11.13;;
36133;SDS011;40492;43.524;-1.510;2022-10-16T05:56:02;25.52;;;10.45;;
36133;SDS011;40492;43.524;-1.510;2022-10-16T05:58:30;24.38;;;10.15;;
36133;SDS011;40492;43.524;-1.510;2022-10-16T06:01:00;21.75;;;9.52;;
36133;SDS011;40492;43.524;-1.510;2022-10-16T06:03:28;21.58;;;10.45;;
36133;SDS011;40492;43.524;-1.510;2022-10-16T06:05:54;23.80;;;9.73;;
36133;SDS011;40492;43.524;-1.510;2022-10-16T06:08:21;22.80;;;9.63;;
36133;SDS011;40492;43.524;-1.510;2022-10-16T06:10:48;18.83;;;9.13;;
36133;SDS011;40492;43.524;-1.510;2022-10-16T06:13:24;21.60;;;9.02;;
36133;SDS011;40492;43.524;-1.510;2022-10-16T06:15:50;23.27;;;9.40;;
36133;SDS011;40492;43.524;-1.510;2022-10-16T06:18:16;19.25;;;8.25;;
36133;SDS011;40492;43.524;-1.510;2022-10-16T06:20:42;16.75;;;8.90;;
36133;SDS011;40492;43.524;-1.510;2022-10-16T06:23:08;15.50;;;7.97;;
36133;SDS011;40492;43.524;-1.510;2022-10-16T06:25:34;25.23;;;9.20;;
36133;SDS011;40492;43.524;-1.510;2022-10-16T06:28:00;19.08;;;8.88;;
36133;SDS011;40492;43.524;-1.510;2022-10-16T06:30:26;15.98;;;7.72;;
36133;SDS011;40492;43.524;-1.510;2022-10-16T06:32:52;15.75;;;8.32;;
36133;SDS011;40492;43.524;-1.510;2022-10-16T06:35:18;16.42;;;8.20;;
36133;SDS011;40492;43.524;-1.510;2022-10-16T06:37:44;18.45;;;8.60;;
36133;SDS011;40492;43.524;-1.510;2022-10-16T06:40:12;16.38;;;8.52;;
36133;SDS011;40492;43.524;-1.510;2022-10-16T06:42:39;16.42;;;8.35;;
36133;SDS011;40492;43.524;-1.510;2022-10-16T06:45:06;11.82;;;7.15;;
36133;SDS011;40492;43.524;-1.510;2022-10-16T06:47:32;13.85;;;7.63;;
36133;SDS011;40492;43.524;-1.510;2022-10-16T06:49:58;15.23;;;8.00;;
36133;SDS011;40492;43.524;-1.510;2022-10-16T06:52:24;21.02;;;7.43;;
36133;SDS011;40492;43.524;-1.510;2022-10-16T06:54:52;19.63;;;7.50;;
36133;SDS011;40492;43.524;-1.510;2022-10-16T06:57:18;15.90;;;6.28;;
36133;SDS011;40492;43.524;-1.510;2022-10-16T06:59:44;18.45;;;7.15;;
36133;SDS011;40492;43.524;-1.510;2022-10-16T07:02:10;14.13;;;6.78;;
36133;SDS011;40492;43.524;-1.510;2022-10-16T07:04:36;14.30;;;6.18;;
36133;SDS011;40492;43.524;-1.510;2022-10-16T07:07:02;11.35;;;5.07;;
36133;SDS011;40492;43.524;-1.510;2022-10-16T07:09:28;12.02;;;4.90;;
36133;SDS011;40492;43.524;-1.510;2022-10-16T07:11:54;12.27;;;4.13;;
36133;SDS011;40492;43.524;-1.510;2022-10-16T07:14:20;9.88;;;3.95;;
36133;SDS011;40492;43.524;-1.510;2022-10-16T07:16:46;9.05;;;3.38;;
36133;SDS011;40492;43.524;-1.510;2022-10-16T07:19:13;12.10;;;3.50;;
36133;SDS011;40492;43.524;-1.510;2022-10-16T07:21:40;8.57;;;3.90;;
36133;SDS011;40492;43.524;-1.510;2022-10-16T07:24:10;4.65;;;3.30;;
36133;SDS011;40492;43.524;-1.510;2022-10-16T07:26:38;15.23;;;4.57;;
36133;SDS011;40492;43.524;-1.510;2022-10-16T07:29:06;9.63;;;4.25;;
36133;SDS011;40492;43.524;-1.510;2022-10-16T07:31:36;6.90;;;4.28;;
36133;SDS011;40492;43.524;-1.510;2022-10-16T07:34:02;7.47;;;3.80;;
36133;SDS011;40492;43.524;-1.510;2022-10-16T07:36:28;8.15;;;4.13;;
36133;SDS011;40492;43.524;-1.510;2022-10-16T07:38:54;8.15;;;4.35;;
36133;SDS011;40492;43.524;-1.510;2022-10-16T07:41:21;8.18;;;4.22;;
36133;SDS011;40492;43.524;-1.510;2022-10-16T07:43:50;9.07;;;3.97;;
36133;SDS011;40492;43.524;-1.510;2022-10-16T07:46:18;9.55;;;4.20;;
36133;SDS011;40492;43.524;-1.510;2022-10-16T07:48:45;12.18;;;3.78;;
36133;SDS011;40492;43.524;-1.510;2022-10-16T07:51:16;9.35;;;3.88;;
36133;SDS011;40492;43.524;-1.510;2022-10-16T07:53:44;8.35;;;3.85;;
36133;SDS011;40492;43.524;-1.510;2022-10-16T07:56:10;9.25;;;3.90;;
36133;SDS011;40492;43.524;-1.510;2022-10-16T07:58:36;4.38;;;2.97;;
36133;SDS011;40492;43.524;-1.510;2022-10-16T08:01:03;6.40;;;3.00;;
36133;SDS011;40492;43.524;-1.510;2022-10-16T08:03:31;9.90;;;3.25;;
36133;SDS011;40492;43.524;-1.510;2022-10-16T08:05:57;7.50;;;3.30;;
36133;SDS011;40492;43.524;-1.510;2022-10-16T08:08:24;6.18;;;3.50;;
36133;SDS011;40492;43.524;-1.510;2022-10-16T08:10:50;8.38;;;3.90;;
36133;SDS011;40492;43.524;-1.510;2022-10-16T08:13:16;10.43;;;4.05;;
36133;SDS011;40492;43.524;-1.510;2022-10-16T08:15:43;9.98;;;3.75;;
36133;SDS011;40492;43.524;-1.510;2022-10-16T08:18:10;7.28;;;3.65;;
36133;SDS011;40492;43.524;-1.510;2022-10-16T08:20:38;7.55;;;3.90;;
36133;SDS011;40492;43.524;-1.510;2022-10-16T08:23:05;7.35;;;3.88;;
36133;SDS011;40492;43.524;-1.510;2022-10-16T08:25:33;5.05;;;3.45;;
36133;SDS011;40492;43.524;-1.510;2022-10-16T08:28:03;8.82;;;3.67;;
36133;SDS011;40492;43.524;-1.510;2022-10-16T08:30:30;7.18;;;3.42;;
36133;SDS011;40492;43.524;-1.510;2022-10-16T08:32:57;7.25;;;3.38;;
36133;SDS011;40492;43.524;-1.510;2022-10-16T08:35:23;4.55;;;3.42;;
36133;SDS011;40492;43.524;-1.510;2022-10-16T08:37:49;6.50;;;3.13;;
36133;SDS011;40492;43.524;-1.510;2022-10-16T08:40:20;9.23;;;3.83;;
36133;SDS011;40492;43.524;-1.510;2022-10-16T08:42:57;9.73;;;4.43;;
36133;SDS011;40492;43.524;-1.510;2022-10-16T08:48:30;10.05;;;3.85;;
36133;SDS011;40492;43.524;-1.510;2022-10-16T08:51:12;9.20;;;3.80;;
36133;SDS011;40492;43.524;-1.510;2022-10-16T08:53:57;8.60;;;3.42;;
36133;SDS011;40492;43.524;-1.510;2022-10-16T08:56:30;4.50;;;3.33;;
36133;SDS011;40492;43.524;-1.510;2022-10-16T08:58:57;5.03;;;2.85;;
36133;SDS011;40492;43.524;-1.510;2022-10-16T09:01:25;9.55;;;3.28;;
36133;SDS011;40492;43.524;-1.510;2022-10-16T09:04:18;6.97;;;2.70;;
36133;SDS011;40492;43.524;-1.510;2022-10-16T09:10:11;5.55;;;3.33;;
36133;SDS011;40492;43.524;-1.510;2022-10-16T09:15:23;9.68;;;2.70;;
36133;SDS011;40492;43.524;-1.510;2022-10-16T09:20:33;7.93;;;3.00;;
36133;SDS011;40492;43.524;-1.510;2022-10-16T09:23:19;7.63;;;2.83;;
36133;SDS011;40492;43.524;-1.510;2022-10-16T09:25:51;6.10;;;2.50;;
36133;SDS011;40492;43.524;-1.510;2022-10-16T09:28:19;5.30;;;2.67;;
36133;SDS011;40492;43.524;-1.510;2022-10-16T09:30:45;6.20;;;3.20;;
36133;SDS011;40492;43.524;-1.510;2022-10-16T09:33:13;7.43;;;3.05;;
36133;SDS011;40492;43.524;-1.510;2022-10-16T09:35:48;4.88;;;2.60;;
36133;SDS011;40492;43.524;-1.510;2022-10-16T09:38:24;5.15;;;2.35;;
36133;SDS011;40492;43.524;-1.510;2022-10-16T09:41:28;4.43;;;2.60;;
36133;SDS011;40492;43.524;-1.510;2022-10-16T09:43:49;4.72;;;2.50;;
36133;SDS011;40492;43.524;-1.510;2022-10-16T09:46:24;11.82;;;3.38;;
36133;SDS011;40492;43.524;-1.510;2022-10-16T09:48:51;5.20;;;2.60;;
36133;SDS011;40492;43.524;-1.510;2022-10-16T09:53:59;5.97;;;2.60;;
36133;SDS011;40492;43.524;-1.510;2022-10-16T09:56:35;3.60;;;2.60;;
36133;SDS011;40492;43.524;-1.510;2022-10-16T09:59:11;3.95;;;2.78;;
36133;SDS011;40492;43.524;-1.510;2022-10-16T10:01:40;9.73;;;3.65;;
36133;SDS011;40492;43.524;-1.510;2022-10-16T10:04:10;5.03;;;2.88;;
36133;SDS011;40492;43.524;-1.510;2022-10-16T10:06:37;6.13;;;3.30;;
36133;SDS011;40492;43.524;-1.510;2022-10-16T10:11:50;5.50;;;3.75;;
36133;SDS011;40492;43.524;-1.510;2022-10-16T10:17:01;8.82;;;3.40;;
36133;SDS011;40492;43.524;-1.510;2022-10-16T10:19:36;7.97;;;4.47;;
36133;SDS011;40492;43.524;-1.510;2022-10-16T10:38:53;9.60;;;3.92;;
36133;SDS011;40492;43.524;-1.510;2022-10-16T10:44:15;8.77;;;3.97;;
36133;SDS011;40492;43.524;-1.510;2022-10-16T10:47:19;8.40;;;3.72;;
36133;SDS011;40492;43.524;-1.510;2022-10-16T10:50:19;6.63;;;3.38;;
36133;SDS011;40492;43.524;-1.510;2022-10-16T10:53:17;7.00;;;3.50;;
36133;SDS011;40492;43.524;-1.510;2022-10-16T11:02:00;8.30;;;3.53;;
36133;SDS011;40492;43.524;-1.510;2022-10-16T11:07:25;5.70;;;3.33;;
36133;SDS011;40492;43.524;-1.510;2022-10-16T11:10:07;11.43;;;3.60;;
36133;SDS011;40492;43.524;-1.510;2022-10-16T11:13:00;10.98;;;3.90;;
36133;SDS011;40492;43.524;-1.510;2022-10-16T11:15:49;9.65;;;3.17;;
36133;SDS011;40492;43.524;-1.510;2022-10-16T11:18:20;7.63;;;3.25;;
36133;SDS011;40492;43.524;-1.510;2022-10-16T11:20:57;4.88;;;3.10;;
36133;SDS011;40492;43.524;-1.510;2022-10-16T11:23:38;10.80;;;3.15;;
36133;SDS011;40492;43.524;-1.510;2022-10-16T11:26:09;6.70;;;3.45;;
36133;SDS011;40492;43.524;-1.510;2022-10-16T11:28:42;8.98;;;3.50;;
36133;SDS011;40492;43.524;-1.510;2022-10-16T11:33:44;11.30;;;3.53;;
36133;SDS011;40492;43.524;-1.510;2022-10-16T11:36:18;8.27;;;3.60;;
36133;SDS011;40492;43.524;-1.510;2022-10-16T11:41:33;4.25;;;3.53;;
36133;SDS011;40492;43.524;-1.510;2022-10-16T11:49:50;5.37;;;3.30;;
36133;SDS011;40492;43.524;-1.510;2022-10-16T11:52:30;6.68;;;3.35;;
36133;SDS011;40492;43.524;-1.510;2022-10-16T11:57:48;8.95;;;3.38;;
36133;SDS011;40492;43.524;-1.510;2022-10-16T12:00:25;8.45;;;3.90;;
36133;SDS011;40492;43.524;-1.510;2022-10-16T12:02:58;13.40;;;3.65;;
36133;SDS011;40492;43.524;-1.510;2022-10-16T12:06:02;17.00;;;4.68;;
36133;SDS011;40492;43.524;-1.510;2022-10-16T12:08:45;18.40;;;4.90;;
36133;SDS011;40492;43.524;-1.510;2022-10-16T12:13:50;20.92;;;5.05;;
36133;SDS011;40492;43.524;-1.510;2022-10-16T12:16:20;17.38;;;4.43;;
36133;SDS011;40492;43.524;-1.510;2022-10-16T12:18:48;24.38;;;5.80;;
36133;SDS011;40492;43.524;-1.510;2022-10-16T12:21:15;37.58;;;7.88;;
36133;SDS011;40492;43.524;-1.510;2022-10-16T12:23:58;24.05;;;5.97;;
36133;SDS011;40492;43.524;-1.510;2022-10-16T12:26:33;30.65;;;7.90;;
36133;SDS011;40492;43.524;-1.510;2022-10-16T12:29:12;35.35;;;8.07;;
36133;SDS011;40492;43.524;-1.510;2022-10-16T12:31:45;20.95;;;5.75;;
36133;SDS011;40492;43.524;-1.510;2022-10-16T12:37:13;38.88;;;8.77;;
36133;SDS011;40492;43.524;-1.510;2022-10-16T12:39:46;44.72;;;11.05;;
36133;SDS011;40492;43.524;-1.510;2022-10-16T12:44:51;25.05;;;6.20;;
36133;SDS011;40492;43.524;-1.510;2022-10-16T12:47:23;31.75;;;7.53;;
36133;SDS011;40492;43.524;-1.510;2022-10-16T12:50:01;25.08;;;7.28;;
36133;SDS011;40492;43.524;-1.510;2022-10-16T12:52:28;31.20;;;7.25;;
36133;SDS011;40492;43.524;-1.510;2022-10-16T12:55:02;31.40;;;8.05;;
36133;SDS011;40492;43.524;-1.510;2022-10-16T13:06:03;12.80;;;3.70;;
36133;SDS011;40492;43.524;-1.510;2022-10-16T13:17:39;9.00;;;2.67;;
36133;SDS011;40492;43.524;-1.510;2022-10-16T13:20:21;7.50;;;2.55;;
36133;SDS011;40492;43.524;-1.510;2022-10-16T13:23:15;5.00;;;2.10;;
36133;SDS011;40492;43.524;-1.510;2022-10-16T13:25:58;4.20;;;2.72;;
36133;SDS011;40492;43.524;-1.510;2022-10-16T13:28:44;9.85;;;2.50;;
36133;SDS011;40492;43.524;-1.510;2022-10-16T13:31:18;6.13;;;2.10;;
36133;SDS011;40492;43.524;-1.510;2022-10-16T13:33:49;6.07;;;2.20;;
36133;SDS011;40492;43.524;-1.510;2022-10-16T13:36:24;4.38;;;2.55;;
36133;SDS011;40492;43.524;-1.510;2022-10-16T13:39:29;7.38;;;2.70;;
36133;SDS011;40492;43.524;-1.510;2022-10-16T13:42:05;8.80;;;2.58;;
36133;SDS011;40492;43.524;-1.510;2022-10-16T13:44:37;9.40;;;2.58;;
36133;SDS011;40492;43.524;-1.510;2022-10-16T13:47:18;6.50;;;2.35;;
36133;SDS011;40492;43.524;-1.510;2022-10-16T13:52:41;11.10;;;2.60;;
36133;SDS011;40492;43.524;-1.510;2022-10-16T13:55:11;6.30;;;2.90;;
36133;SDS011;40492;43.524;-1.510;2022-10-16T13:57:42;6.47;;;2.60;;
36133;SDS011;40492;43.524;-1.510;2022-10-16T14:00:22;11.00;;;2.40;;
36133;SDS011;40492;43.524;-1.510;2022-10-16T14:02:55;7.78;;;2.65;;
36133;SDS011;40492;43.524;-1.510;2022-10-16T14:05:26;9.95;;;2.55;;
36133;SDS011;40492;43.524;-1.510;2022-10-16T14:07:52;6.97;;;2.45;;
36133;SDS011;40492;43.524;-1.510;2022-10-16T14:10:25;6.72;;;2.88;;
36133;SDS011;40492;43.524;-1.510;2022-10-16T14:15:30;6.93;;;2.75;;
36133;SDS011;40492;43.524;-1.510;2022-10-16T14:17:57;6.45;;;2.25;;
36133;SDS011;40492;43.524;-1.510;2022-10-16T14:20:28;10.10;;;2.50;;
36133;SDS011;40492;43.524;-1.510;2022-10-16T14:22:59;6.82;;;2.35;;
36133;SDS011;40492;43.524;-1.510;2022-10-16T14:25:30;6.38;;;2.47;;
36133;SDS011;40492;43.524;-1.510;2022-10-16T14:30:28;7.95;;;2.53;;
36133;SDS011;40492;43.524;-1.510;2022-10-16T14:32:59;9.95;;;2.72;;
36133;SDS011;40492;43.524;-1.510;2022-10-16T14:35:31;6.55;;;2.08;;
36133;SDS011;40492;43.524;-1.510;2022-10-16T14:38:00;7.40;;;2.80;;
36133;SDS011;40492;43.524;-1.510;2022-10-16T14:40:30;7.88;;;2.58;;
36133;SDS011;40492;43.524;-1.510;2022-10-16T14:42:58;5.95;;;2.65;;
36133;SDS011;40492;43.524;-1.510;2022-10-16T14:45:30;8.43;;;2.92;;
36133;SDS011;40492;43.524;-1.510;2022-10-16T14:47:58;71.32;;;14.75;;
36133;SDS011;40492;43.524;-1.510;2022-10-16T14:50:27;86.38;;;16.95;;
36133;SDS011;40492;43.524;-1.510;2022-10-16T14:52:54;118.88;;;26.83;;
36133;SDS011;40492;43.524;-1.510;2022-10-16T14:55:20;119.35;;;26.60;;
36133;SDS011;40492;43.524;-1.510;2022-10-16T14:57:46;171.18;;;38.20;;
36133;SDS011;40492;43.524;-1.510;2022-10-16T15:00:18;184.70;;;43.25;;
36133;SDS011;40492;43.524;-1.510;2022-10-16T15:02:47;206.50;;;46.47;;
36133;SDS011;40492;43.524;-1.510;2022-10-16T15:05:23;270.45;;;54.10;;
36133;SDS011;40492;43.524;-1.510;2022-10-16T15:07:52;253.38;;;53.70;;
36133;SDS011;40492;43.524;-1.510;2022-10-16T15:10:22;248.27;;;50.50;;
36133;SDS011;40492;43.524;-1.510;2022-10-16T15:12:49;237.43;;;50.53;;
36133;SDS011;40492;43.524;-1.510;2022-10-16T15:15:20;218.68;;;51.70;;
36133;SDS011;40492;43.524;-1.510;2022-10-16T15:18:04;215.98;;;46.47;;
36133;SDS011;40492;43.524;-1.510;2022-10-16T15:20:31;216.50;;;46.03;;
36133;SDS011;40492;43.524;-1.510;2022-10-16T15:23:03;238.85;;;48.70;;
36133;SDS011;40492;43.524;-1.510;2022-10-16T15:25:34;199.27;;;45.10;;
36133;SDS011;40492;43.524;-1.510;2022-10-16T15:28:06;250.73;;;53.38;;
36133;SDS011;40492;43.524;-1.510;2022-10-16T15:30:33;220.07;;;51.60;;
36133;SDS011;40492;43.524;-1.510;2022-10-16T15:33:01;222.85;;;50.28;;
36133;SDS011;40492;43.524;-1.510;2022-10-16T15:35:27;231.18;;;49.78;;
36133;SDS011;40492;43.524;-1.510;2022-10-16T15:37:53;233.70;;;52.03;;
36133;SDS011;40492;43.524;-1.510;2022-10-16T15:40:19;213.77;;;49.17;;
36133;SDS011;40492;43.524;-1.510;2022-10-16T15:42:46;239.07;;;53.00;;
36133;SDS011;40492;43.524;-1.510;2022-10-16T15:45:12;238.00;;;51.90;;
36133;SDS011;40492;43.524;-1.510;2022-10-16T15:47:40;227.20;;;49.25;;
36133;SDS011;40492;43.524;-1.510;2022-10-16T15:50:06;200.75;;;48.08;;
36133;SDS011;40492;43.524;-1.510;2022-10-16T15:52:36;183.70;;;47.90;;
36133;SDS011;40492;43.524;-1.510;2022-10-16T15:55:04;175.70;;;42.08;;
36133;SDS011;40492;43.524;-1.510;2022-10-16T15:57:31;203.18;;;43.08;;
36133;SDS011;40492;43.524;-1.510;2022-10-16T15:59:57;195.18;;;46.83;;
36133;SDS011;40492;43.524;-1.510;2022-10-16T16:02:24;220.00;;;49.63;;
36133;SDS011;40492;43.524;-1.510;2022-10-16T16:04:49;210.65;;;49.20;;
36133;SDS011;40492;43.524;-1.510;2022-10-16T16:07:19;190.20;;;46.45;;
36133;SDS011;40492;43.524;-1.510;2022-10-16T16:09:44;188.02;;;43.75;;
36133;SDS011;40492;43.524;-1.510;2022-10-16T16:12:10;169.68;;;42.17;;
36133;SDS011;40492;43.524;-1.510;2022-10-16T16:14:36;201.40;;;46.15;;
36133;SDS011;40492;43.524;-1.510;2022-10-16T16:17:02;107.90;;;27.08;;
36133;SDS011;40492;43.524;-1.510;2022-10-16T16:19:28;104.22;;;27.25;;
36133;SDS011;40492;43.524;-1.510;2022-10-16T16:21:54;57.28;;;17.65;;
36133;SDS011;40492;43.524;-1.510;2022-10-16T16:24:20;46.25;;;11.05;;
36133;SDS011;40492;43.524;-1.510;2022-10-16T16:26:46;53.58;;;14.82;;
36133;SDS011;40492;43.524;-1.510;2022-10-16T16:29:12;47.95;;;14.38;;